sensor_id;sensor_type;location;lat;lon;timestamp;P1;durP1;ratioP1;P2;durP2;ratioP2
67156;SDS011;54086;50.126;8.710;2023-05-10T00:02:01;5.47;;;2.03;;
67156;SDS011;54086;50.126;8.710;2023-05-10T00:04:28;5.78;;;2.50;;
67156;SDS011;54086;50.126;8.710;2023-05-10T00:06:54;6.50;;;2.57;;
67156;SDS011;54086;50.126;8.710;2023-05-10T00:09:19;5.63;;;2.33;;
67156;SDS011;54086;50.126;8.710;2023-05-10T00:11:45;6.30;;;2.63;;
67156;SDS011;54086;50.126;8.710;2023-05-10T00:14:11;6.60;;;2.38;;
67156;SDS011;54086;50.126;8.710;2023-05-10T00:16:36;6.23;;;2.77;;
67156;SDS011;54086;50.126;8.710;2023-05-10T00:19:02;6.85;;;3.08;;
67156;SDS011;54086;50.126;8.710;2023-05-10T00:21:27;8.20;;;3.50;;
67156;SDS011;54086;50.126;8.710;2023-05-10T00:23:53;6.85;;;3.45;;
67156;SDS011;54086;50.126;8.710;2023-05-10T00:26:19;6.37;;;2.83;;
67156;SDS011;54086;50.126;8.710;2023-05-10T00:28:44;6.15;;;2.30;;
67156;SDS011;54086;50.126;8.710;2023-05-10T00:31:10;5.77;;;2.23;;
67156;SDS011;54086;50.126;8.710;2023-05-10T00:33:35;5.33;;;2.33;;
67156;SDS011;54086;50.126;8.710;2023-05-10T00:36:00;7.10;;;2.23;;
67156;SDS011;54086;50.126;8.710;2023-05-10T00:38:27;6.63;;;2.20;;
67156;SDS011;54086;50.126;8.710;2023-05-10T00:40:54;5.17;;;1.77;;
67156;SDS011;54086;50.126;8.710;2023-05-10T00:43:19;5.38;;;1.85;;
67156;SDS011;54086;50.126;8.710;2023-05-10T00:45:45;4.77;;;1.83;;
67156;SDS011;54086;50.126;8.710;2023-05-10T00:48:10;4.17;;;1.47;;
67156;SDS011;54086;50.126;8.710;2023-05-10T00:50:36;5.10;;;1.60;;
67156;SDS011;54086;50.126;8.710;2023-05-10T00:53:05;4.55;;;1.70;;
67156;SDS011;54086;50.126;8.710;2023-05-10T00:55:30;4.07;;;1.60;;
67156;SDS011;54086;50.126;8.710;2023-05-10T00:57:56;6.43;;;1.60;;
67156;SDS011;54086;50.126;8.710;2023-05-10T01:00:21;3.55;;;1.50;;
67156;SDS011;54086;50.126;8.710;2023-05-10T01:02:47;3.30;;;1.27;;
67156;SDS011;54086;50.126;8.710;2023-05-10T01:05:12;4.03;;;1.27;;
67156;SDS011;54086;50.126;8.710;2023-05-10T01:07:38;4.00;;;1.30;;
67156;SDS011;54086;50.126;8.710;2023-05-10T01:10:05;3.13;;;1.40;;
67156;SDS011;54086;50.126;8.710;2023-05-10T01:12:31;2.92;;;1.40;;
67156;SDS011;54086;50.126;8.710;2023-05-10T01:15:00;3.00;;;1.20;;
67156;SDS011;54086;50.126;8.710;2023-05-10T01:17:26;3.45;;;1.50;;
67156;SDS011;54086;50.126;8.710;2023-05-10T01:19:52;3.30;;;1.17;;
67156;SDS011;54086;50.126;8.710;2023-05-10T01:31:03;6.50;;;1.35;;
67156;SDS011;54086;50.126;8.710;2023-05-10T01:42:08;2.93;;;1.03;;
67156;SDS011;54086;50.126;8.710;2023-05-10T01:44:44;2.40;;;1.10;;
67156;SDS011;54086;50.126;8.710;2023-05-10T01:47:31;3.08;;;1.05;;
67156;SDS011;54086;50.126;8.710;2023-05-10T01:49:58;4.90;;;1.23;;
67156;SDS011;54086;50.126;8.710;2023-05-10T01:52:32;4.57;;;1.20;;
67156;SDS011;54086;50.126;8.710;2023-05-10T01:55:02;2.50;;;1.03;;
67156;SDS011;54086;50.126;8.710;2023-05-10T01:57:35;3.58;;;1.30;;
67156;SDS011;54086;50.126;8.710;2023-05-10T02:00:03;3.25;;;1.20;;
67156;SDS011;54086;50.126;8.710;2023-05-10T02:02:30;3.42;;;1.27;;
67156;SDS011;54086;50.126;8.710;2023-05-10T02:05:00;2.80;;;1.10;;
67156;SDS011;54086;50.126;8.710;2023-05-10T02:07:26;4.67;;;1.10;;
67156;SDS011;54086;50.126;8.710;2023-05-10T02:09:53;2.53;;;1.10;;
67156;SDS011;54086;50.126;8.710;2023-05-10T02:12:20;2.42;;;1.00;;
67156;SDS011;54086;50.126;8.710;2023-05-10T02:14:49;3.85;;;1.10;;
67156;SDS011;54086;50.126;8.710;2023-05-10T02:17:16;4.00;;;1.17;;
67156;SDS011;54086;50.126;8.710;2023-05-10T02:19:43;5.18;;;1.40;;
67156;SDS011;54086;50.126;8.710;2023-05-10T02:22:11;3.83;;;1.23;;
67156;SDS011;54086;50.126;8.710;2023-05-10T02:24:37;3.20;;;1.10;;
67156;SDS011;54086;50.126;8.710;2023-05-10T02:27:04;7.80;;;1.30;;
67156;SDS011;54086;50.126;8.710;2023-05-10T02:29:31;3.63;;;1.10;;
67156;SDS011;54086;50.126;8.710;2023-05-10T02:31:58;2.22;;;0.95;;
67156;SDS011;54086;50.126;8.710;2023-05-10T02:34:27;3.55;;;1.00;;
67156;SDS011;54086;50.126;8.710;2023-05-10T02:36:56;2.97;;;1.00;;
67156;SDS011;54086;50.126;8.710;2023-05-10T02:39:22;2.50;;;1.00;;
67156;SDS011;54086;50.126;8.710;2023-05-10T02:41:50;4.63;;;1.30;;
67156;SDS011;54086;50.126;8.710;2023-05-10T02:44:19;2.38;;;0.98;;
67156;SDS011;54086;50.126;8.710;2023-05-10T02:46:48;4.70;;;1.20;;
67156;SDS011;54086;50.126;8.710;2023-05-10T02:49:15;3.08;;;1.13;;
67156;SDS011;54086;50.126;8.710;2023-05-10T02:51:41;3.67;;;1.23;;
67156;SDS011;54086;50.126;8.710;2023-05-10T02:54:13;3.65;;;1.00;;
67156;SDS011;54086;50.126;8.710;2023-05-10T02:56:47;3.15;;;1.30;;
67156;SDS011;54086;50.126;8.710;2023-05-10T02:59:15;2.97;;;1.23;;
67156;SDS011;54086;50.126;8.710;2023-05-10T03:01:41;2.90;;;1.23;;
67156;SDS011;54086;50.126;8.710;2023-05-10T03:04:06;4.63;;;1.20;;
67156;SDS011;54086;50.126;8.710;2023-05-10T03:06:32;3.47;;;1.43;;
67156;SDS011;54086;50.126;8.710;2023-05-10T03:08:59;2.92;;;1.10;;
67156;SDS011;54086;50.126;8.710;2023-05-10T03:17:14;3.70;;;1.40;;
67156;SDS011;54086;50.126;8.710;2023-05-10T03:19:51;3.17;;;1.02;;
67156;SDS011;54086;50.126;8.710;2023-05-10T03:22:27;1.98;;;1.00;;
67156;SDS011;54086;50.126;8.710;2023-05-10T03:25:00;3.50;;;1.50;;
67156;SDS011;54086;50.126;8.710;2023-05-10T03:27:30;3.58;;;1.17;;
67156;SDS011;54086;50.126;8.710;2023-05-10T03:29:56;5.05;;;1.48;;
67156;SDS011;54086;50.126;8.710;2023-05-10T03:32:22;3.40;;;1.10;;
67156;SDS011;54086;50.126;8.710;2023-05-10T03:34:48;3.37;;;1.10;;
67156;SDS011;54086;50.126;8.710;2023-05-10T03:37:13;4.40;;;1.60;;
67156;SDS011;54086;50.126;8.710;2023-05-10T03:39:39;3.95;;;1.35;;
67156;SDS011;54086;50.126;8.710;2023-05-10T03:42:05;3.93;;;1.43;;
67156;SDS011;54086;50.126;8.710;2023-05-10T03:44:30;4.75;;;1.35;;
67156;SDS011;54086;50.126;8.710;2023-05-10T03:46:58;4.10;;;1.20;;
67156;SDS011;54086;50.126;8.710;2023-05-10T03:49:23;4.10;;;1.40;;
67156;SDS011;54086;50.126;8.710;2023-05-10T03:51:48;3.53;;;1.20;;
67156;SDS011;54086;50.126;8.710;2023-05-10T03:54:15;4.65;;;1.38;;
67156;SDS011;54086;50.126;8.710;2023-05-10T03:56:41;3.10;;;1.00;;
67156;SDS011;54086;50.126;8.710;2023-05-10T03:59:06;6.77;;;1.57;;
67156;SDS011;54086;50.126;8.710;2023-05-10T04:01:33;4.20;;;1.30;;
67156;SDS011;54086;50.126;8.710;2023-05-10T04:03:59;3.08;;;1.20;;
67156;SDS011;54086;50.126;8.710;2023-05-10T04:06:25;4.27;;;1.40;;
67156;SDS011;54086;50.126;8.710;2023-05-10T04:08:50;4.63;;;1.00;;
67156;SDS011;54086;50.126;8.710;2023-05-10T04:11:17;4.18;;;1.50;;
67156;SDS011;54086;50.126;8.710;2023-05-10T04:13:42;5.40;;;1.50;;
67156;SDS011;54086;50.126;8.710;2023-05-10T04:16:08;3.78;;;1.40;;
67156;SDS011;54086;50.126;8.710;2023-05-10T04:18:34;4.10;;;1.63;;
67156;SDS011;54086;50.126;8.710;2023-05-10T04:20:59;4.32;;;1.58;;
67156;SDS011;54086;50.126;8.710;2023-05-10T04:23:25;4.10;;;1.50;;
67156;SDS011;54086;50.126;8.710;2023-05-10T04:25:51;3.55;;;1.30;;
67156;SDS011;54086;50.126;8.710;2023-05-10T04:28:17;3.70;;;1.57;;
67156;SDS011;54086;50.126;8.710;2023-05-10T04:30:42;3.97;;;1.50;;
67156;SDS011;54086;50.126;8.710;2023-05-10T04:33:07;4.57;;;1.67;;
67156;SDS011;54086;50.126;8.710;2023-05-10T04:35:34;4.17;;;1.50;;
67156;SDS011;54086;50.126;8.710;2023-05-10T04:38:00;3.60;;;1.40;;
67156;SDS011;54086;50.126;8.710;2023-05-10T04:40:25;5.27;;;1.90;;
67156;SDS011;54086;50.126;8.710;2023-05-10T04:42:50;8.10;;;1.53;;
67156;SDS011;54086;50.126;8.710;2023-05-10T04:45:16;4.55;;;1.77;;
67156;SDS011;54086;50.126;8.710;2023-05-10T04:47:42;6.55;;;1.80;;
67156;SDS011;54086;50.126;8.710;2023-05-10T04:50:07;4.37;;;1.60;;
67156;SDS011;54086;50.126;8.710;2023-05-10T04:52:33;4.93;;;1.70;;
67156;SDS011;54086;50.126;8.710;2023-05-10T04:54:59;4.95;;;1.80;;
67156;SDS011;54086;50.126;8.710;2023-05-10T04:57:26;4.23;;;1.57;;
67156;SDS011;54086;50.126;8.710;2023-05-10T04:59:51;4.50;;;1.63;;
67156;SDS011;54086;50.126;8.710;2023-05-10T05:02:18;5.18;;;1.77;;
67156;SDS011;54086;50.126;8.710;2023-05-10T05:04:43;5.50;;;1.60;;
67156;SDS011;54086;50.126;8.710;2023-05-10T05:07:09;5.20;;;2.00;;
67156;SDS011;54086;50.126;8.710;2023-05-10T05:09:34;5.30;;;1.92;;
67156;SDS011;54086;50.126;8.710;2023-05-10T05:12:00;5.47;;;1.70;;
67156;SDS011;54086;50.126;8.710;2023-05-10T05:14:25;5.37;;;2.00;;
67156;SDS011;54086;50.126;8.710;2023-05-10T05:16:51;4.50;;;1.70;;
67156;SDS011;54086;50.126;8.710;2023-05-10T05:19:17;4.80;;;1.70;;
67156;SDS011;54086;50.126;8.710;2023-05-10T05:21:42;5.87;;;2.07;;
67156;SDS011;54086;50.126;8.710;2023-05-10T05:24:09;4.97;;;1.70;;
67156;SDS011;54086;50.126;8.710;2023-05-10T05:26:35;5.70;;;1.98;;
67156;SDS011;54086;50.126;8.710;2023-05-10T05:29:00;6.47;;;1.90;;
67156;SDS011;54086;50.126;8.710;2023-05-10T05:31:26;6.07;;;2.30;;
67156;SDS011;54086;50.126;8.710;2023-05-10T05:33:51;5.73;;;2.33;;
67156;SDS011;54086;50.126;8.710;2023-05-10T05:36:17;6.75;;;2.47;;
67156;SDS011;54086;50.126;8.710;2023-05-10T05:38:42;7.90;;;2.83;;
67156;SDS011;54086;50.126;8.710;2023-05-10T05:41:08;6.70;;;2.70;;
67156;SDS011;54086;50.126;8.710;2023-05-10T05:43:33;6.10;;;2.30;;
67156;SDS011;54086;50.126;8.710;2023-05-10T05:45:59;7.30;;;2.55;;
67156;SDS011;54086;50.126;8.710;2023-05-10T05:48:24;8.50;;;2.63;;
67156;SDS011;54086;50.126;8.710;2023-05-10T05:50:49;6.83;;;2.70;;
67156;SDS011;54086;50.126;8.710;2023-05-10T05:53:15;5.90;;;2.20;;
67156;SDS011;54086;50.126;8.710;2023-05-10T05:55:40;6.63;;;2.80;;
67156;SDS011;54086;50.126;8.710;2023-05-10T05:58:16;7.23;;;2.70;;
67156;SDS011;54086;50.126;8.710;2023-05-10T06:00:42;6.50;;;2.78;;
67156;SDS011;54086;50.126;8.710;2023-05-10T06:03:08;7.27;;;2.53;;
67156;SDS011;54086;50.126;8.710;2023-05-10T06:05:33;6.90;;;2.72;;
67156;SDS011;54086;50.126;8.710;2023-05-10T06:07:59;8.70;;;3.43;;
67156;SDS011;54086;50.126;8.710;2023-05-10T06:10:25;7.43;;;3.13;;
67156;SDS011;54086;50.126;8.710;2023-05-10T06:12:52;8.90;;;3.00;;
67156;SDS011;54086;50.126;8.710;2023-05-10T06:15:18;9.70;;;3.45;;
67156;SDS011;54086;50.126;8.710;2023-05-10T06:17:43;8.17;;;3.50;;
67156;SDS011;54086;50.126;8.710;2023-05-10T06:20:09;7.78;;;2.80;;
67156;SDS011;54086;50.126;8.710;2023-05-10T06:22:35;7.43;;;3.03;;
67156;SDS011;54086;50.126;8.710;2023-05-10T06:25:00;11.27;;;3.47;;
67156;SDS011;54086;50.126;8.710;2023-05-10T06:27:26;7.57;;;3.30;;
67156;SDS011;54086;50.126;8.710;2023-05-10T06:29:52;7.53;;;3.10;;
67156;SDS011;54086;50.126;8.710;2023-05-10T06:32:17;8.33;;;3.17;;
67156;SDS011;54086;50.126;8.710;2023-05-10T06:34:43;8.73;;;2.70;;
67156;SDS011;54086;50.126;8.710;2023-05-10T06:37:09;10.38;;;3.03;;
67156;SDS011;54086;50.126;8.710;2023-05-10T06:39:35;8.20;;;2.42;;
67156;SDS011;54086;50.126;8.710;2023-05-10T06:42:01;8.30;;;3.00;;
67156;SDS011;54086;50.126;8.710;2023-05-10T06:44:27;8.57;;;3.10;;
67156;SDS011;54086;50.126;8.710;2023-05-10T06:46:53;8.52;;;3.40;;
67156;SDS011;54086;50.126;8.710;2023-05-10T06:49:20;8.33;;;2.93;;
67156;SDS011;54086;50.126;8.710;2023-05-10T06:51:46;8.07;;;3.20;;
67156;SDS011;54086;50.126;8.710;2023-05-10T06:54:11;6.30;;;2.80;;
67156;SDS011;54086;50.126;8.710;2023-05-10T06:56:37;8.07;;;3.00;;
67156;SDS011;54086;50.126;8.710;2023-05-10T06:59:02;10.50;;;3.43;;
67156;SDS011;54086;50.126;8.710;2023-05-10T07:01:27;9.27;;;3.10;;
67156;SDS011;54086;50.126;8.710;2023-05-10T07:03:53;9.33;;;3.30;;
67156;SDS011;54086;50.126;8.710;2023-05-10T07:06:18;8.60;;;3.30;;
67156;SDS011;54086;50.126;8.710;2023-05-10T07:08:44;6.43;;;2.90;;
67156;SDS011;54086;50.126;8.710;2023-05-10T07:11:09;8.02;;;3.10;;
67156;SDS011;54086;50.126;8.710;2023-05-10T07:13:37;9.53;;;3.20;;
67156;SDS011;54086;50.126;8.710;2023-05-10T07:16:06;7.15;;;3.00;;
67156;SDS011;54086;50.126;8.710;2023-05-10T07:18:32;7.63;;;2.75;;
67156;SDS011;54086;50.126;8.710;2023-05-10T07:20:58;7.03;;;2.75;;
67156;SDS011;54086;50.126;8.710;2023-05-10T07:23:23;7.47;;;2.70;;
67156;SDS011;54086;50.126;8.710;2023-05-10T07:25:50;7.07;;;2.77;;
67156;SDS011;54086;50.126;8.710;2023-05-10T07:28:20;6.70;;;2.80;;
67156;SDS011;54086;50.126;8.710;2023-05-10T07:30:47;7.45;;;2.53;;
67156;SDS011;54086;50.126;8.710;2023-05-10T07:33:13;8.45;;;3.08;;
67156;SDS011;54086;50.126;8.710;2023-05-10T07:35:39;7.67;;;3.00;;
67156;SDS011;54086;50.126;8.710;2023-05-10T07:38:04;9.27;;;3.17;;
67156;SDS011;54086;50.126;8.710;2023-05-10T07:40:30;7.50;;;2.53;;
67156;SDS011;54086;50.126;8.710;2023-05-10T07:42:56;7.30;;;2.60;;
67156;SDS011;54086;50.126;8.710;2023-05-10T07:45:21;6.40;;;2.70;;
67156;SDS011;54086;50.126;8.710;2023-05-10T07:47:48;7.40;;;2.78;;
67156;SDS011;54086;50.126;8.710;2023-05-10T07:50:13;10.13;;;3.27;;
67156;SDS011;54086;50.126;8.710;2023-05-10T07:52:39;8.73;;;3.08;;
67156;SDS011;54086;50.126;8.710;2023-05-10T07:55:04;7.20;;;3.17;;
67156;SDS011;54086;50.126;8.710;2023-05-10T07:57:30;8.57;;;2.65;;
67156;SDS011;54086;50.126;8.710;2023-05-10T07:59:56;11.77;;;2.93;;
67156;SDS011;54086;50.126;8.710;2023-05-10T08:02:21;7.33;;;2.80;;
67156;SDS011;54086;50.126;8.710;2023-05-10T08:04:46;9.57;;;2.50;;
67156;SDS011;54086;50.126;8.710;2023-05-10T08:07:12;7.10;;;2.78;;
67156;SDS011;54086;50.126;8.710;2023-05-10T08:09:37;6.53;;;2.70;;
67156;SDS011;54086;50.126;8.710;2023-05-10T08:12:02;7.97;;;2.80;;
67156;SDS011;54086;50.126;8.710;2023-05-10T08:14:28;8.02;;;2.65;;
67156;SDS011;54086;50.126;8.710;2023-05-10T08:16:54;6.83;;;2.60;;
67156;SDS011;54086;50.126;8.710;2023-05-10T08:19:21;6.65;;;2.80;;
67156;SDS011;54086;50.126;8.710;2023-05-10T08:21:47;8.35;;;2.80;;
67156;SDS011;54086;50.126;8.710;2023-05-10T08:24:14;8.75;;;2.88;;
67156;SDS011;54086;50.126;8.710;2023-05-10T08:26:40;7.07;;;2.60;;
67156;SDS011;54086;50.126;8.710;2023-05-10T08:29:05;8.68;;;2.75;;
67156;SDS011;54086;50.126;8.710;2023-05-10T08:31:31;6.50;;;2.50;;
67156;SDS011;54086;50.126;8.710;2023-05-10T08:33:56;8.63;;;2.90;;
67156;SDS011;54086;50.126;8.710;2023-05-10T08:36:22;6.80;;;2.33;;
67156;SDS011;54086;50.126;8.710;2023-05-10T08:38:52;7.95;;;3.00;;
67156;SDS011;54086;50.126;8.710;2023-05-10T08:41:21;7.22;;;2.78;;
67156;SDS011;54086;50.126;8.710;2023-05-10T08:43:49;6.47;;;2.60;;
67156;SDS011;54086;50.126;8.710;2023-05-10T08:46:16;8.43;;;2.60;;
67156;SDS011;54086;50.126;8.710;2023-05-10T08:48:43;7.13;;;2.33;;
67156;SDS011;54086;50.126;8.710;2023-05-10T08:51:17;8.95;;;2.63;;
67156;SDS011;54086;50.126;8.710;2023-05-10T08:53:44;7.20;;;2.60;;
67156;SDS011;54086;50.126;8.710;2023-05-10T08:56:10;8.30;;;3.00;;
67156;SDS011;54086;50.126;8.710;2023-05-10T08:58:36;8.93;;;2.40;;
67156;SDS011;54086;50.126;8.710;2023-05-10T09:01:02;8.55;;;2.92;;
67156;SDS011;54086;50.126;8.710;2023-05-10T09:03:29;6.75;;;2.40;;
67156;SDS011;54086;50.126;8.710;2023-05-10T09:05:55;7.40;;;2.30;;
67156;SDS011;54086;50.126;8.710;2023-05-10T09:08:22;6.50;;;2.42;;
67156;SDS011;54086;50.126;8.710;2023-05-10T09:10:50;7.78;;;2.10;;
67156;SDS011;54086;50.126;8.710;2023-05-10T09:13:17;8.13;;;2.78;;
67156;SDS011;54086;50.126;8.710;2023-05-10T09:15:44;6.43;;;2.50;;
67156;SDS011;54086;50.126;8.710;2023-05-10T09:18:11;5.97;;;2.17;;
67156;SDS011;54086;50.126;8.710;2023-05-10T09:20:36;8.40;;;2.83;;
67156;SDS011;54086;50.126;8.710;2023-05-10T09:23:02;5.97;;;2.23;;
67156;SDS011;54086;50.126;8.710;2023-05-10T09:25:28;8.43;;;2.73;;
67156;SDS011;54086;50.126;8.710;2023-05-10T09:27:54;8.25;;;2.70;;
67156;SDS011;54086;50.126;8.710;2023-05-10T09:30:27;6.77;;;2.30;;
67156;SDS011;54086;50.126;8.710;2023-05-10T09:32:56;7.75;;;2.90;;
67156;SDS011;54086;50.126;8.710;2023-05-10T09:35:23;7.75;;;2.72;;
67156;SDS011;54086;50.126;8.710;2023-05-10T09:37:52;7.65;;;2.72;;
67156;SDS011;54086;50.126;8.710;2023-05-10T09:40:20;7.20;;;2.67;;
67156;SDS011;54086;50.126;8.710;2023-05-10T09:43:29;9.00;;;3.30;;
67156;SDS011;54086;50.126;8.710;2023-05-10T09:45:40;8.27;;;3.28;;
67156;SDS011;54086;50.126;8.710;2023-05-10T09:48:06;8.77;;;2.90;;
67156;SDS011;54086;50.126;8.710;2023-05-10T09:50:31;8.97;;;3.00;;
67156;SDS011;54086;50.126;8.710;2023-05-10T09:53:01;8.40;;;3.00;;
67156;SDS011;54086;50.126;8.710;2023-05-10T09:58:04;11.30;;;3.38;;
67156;SDS011;54086;50.126;8.710;2023-05-10T10:00:35;5.72;;;2.40;;
67156;SDS011;54086;50.126;8.710;2023-05-10T10:03:05;7.18;;;2.47;;
67156;SDS011;54086;50.126;8.710;2023-05-10T10:05:31;8.40;;;2.60;;
67156;SDS011;54086;50.126;8.710;2023-05-10T10:07:58;5.55;;;1.90;;
67156;SDS011;54086;50.126;8.710;2023-05-10T10:10:25;8.40;;;2.50;;
67156;SDS011;54086;50.126;8.710;2023-05-10T10:12:51;6.07;;;2.20;;
67156;SDS011;54086;50.126;8.710;2023-05-10T10:15:17;7.10;;;2.20;;
67156;SDS011;54086;50.126;8.710;2023-05-10T10:17:45;5.07;;;2.37;;
67156;SDS011;54086;50.126;8.710;2023-05-10T10:20:11;7.63;;;2.45;;
67156;SDS011;54086;50.126;8.710;2023-05-10T10:22:39;7.97;;;2.92;;
67156;SDS011;54086;50.126;8.710;2023-05-10T10:25:04;7.97;;;2.65;;
67156;SDS011;54086;50.126;8.710;2023-05-10T10:35:21;6.65;;;1.90;;
67156;SDS011;54086;50.126;8.710;2023-05-10T10:37:50;6.78;;;2.55;;
67156;SDS011;54086;50.126;8.710;2023-05-10T10:40:30;9.20;;;2.97;;
67156;SDS011;54086;50.126;8.710;2023-05-10T10:42:57;6.90;;;2.67;;
67156;SDS011;54086;50.126;8.710;2023-05-10T10:45:43;7.32;;;2.92;;
67156;SDS011;54086;50.126;8.710;2023-05-10T10:48:22;7.45;;;3.10;;
67156;SDS011;54086;50.126;8.710;2023-05-10T10:50:48;7.13;;;3.17;;
67156;SDS011;54086;50.126;8.710;2023-05-10T10:53:22;8.30;;;3.47;;
67156;SDS011;54086;50.126;8.710;2023-05-10T10:55:47;8.65;;;3.28;;
67156;SDS011;54086;50.126;8.710;2023-05-10T10:58:28;6.73;;;1.80;;
67156;SDS011;54086;50.126;8.710;2023-05-10T11:03:39;6.65;;;2.05;;
67156;SDS011;54086;50.126;8.710;2023-05-10T11:06:05;7.45;;;1.80;;
67156;SDS011;54086;50.126;8.710;2023-05-10T11:08:31;4.70;;;1.73;;
67156;SDS011;54086;50.126;8.710;2023-05-10T11:19:07;6.83;;;2.00;;
67156;SDS011;54086;50.126;8.710;2023-05-10T11:21:36;5.95;;;2.05;;
67156;SDS011;54086;50.126;8.710;2023-05-10T11:24:20;5.53;;;2.33;;
67156;SDS011;54086;50.126;8.710;2023-05-10T11:26:49;5.53;;;2.13;;
67156;SDS011;54086;50.126;8.710;2023-05-10T11:29:15;5.97;;;2.03;;
67156;SDS011;54086;50.126;8.710;2023-05-10T11:31:44;5.47;;;1.60;;
67156;SDS011;54086;50.126;8.710;2023-05-10T11:34:11;4.53;;;1.33;;
67156;SDS011;54086;50.126;8.710;2023-05-10T11:36:39;6.72;;;2.30;;
67156;SDS011;54086;50.126;8.710;2023-05-10T11:39:05;6.20;;;1.97;;
67156;SDS011;54086;50.126;8.710;2023-05-10T11:41:31;4.95;;;1.75;;
67156;SDS011;54086;50.126;8.710;2023-05-10T11:43:57;5.05;;;1.80;;
67156;SDS011;54086;50.126;8.710;2023-05-10T11:46:24;6.00;;;1.63;;
67156;SDS011;54086;50.126;8.710;2023-05-10T11:48:52;5.10;;;1.50;;
67156;SDS011;54086;50.126;8.710;2023-05-10T11:51:20;5.10;;;1.67;;
67156;SDS011;54086;50.126;8.710;2023-05-10T11:53:49;6.10;;;1.73;;
67156;SDS011;54086;50.126;8.710;2023-05-10T11:56:16;6.43;;;1.98;;
67156;SDS011;54086;50.126;8.710;2023-05-10T11:58:41;7.27;;;1.80;;
67156;SDS011;54086;50.126;8.710;2023-05-10T12:01:07;6.47;;;1.80;;
67156;SDS011;54086;50.126;8.710;2023-05-10T12:03:34;4.93;;;1.87;;
67156;SDS011;54086;50.126;8.710;2023-05-10T12:06:00;5.32;;;1.85;;
67156;SDS011;54086;50.126;8.710;2023-05-10T12:08:27;8.27;;;2.50;;
67156;SDS011;54086;50.126;8.710;2023-05-10T12:11:03;6.00;;;1.95;;
67156;SDS011;54086;50.126;8.710;2023-05-10T12:13:30;6.18;;;2.50;;
67156;SDS011;54086;50.126;8.710;2023-05-10T12:16:00;5.43;;;2.37;;
67156;SDS011;54086;50.126;8.710;2023-05-10T12:18:38;7.30;;;2.40;;
67156;SDS011;54086;50.126;8.710;2023-05-10T12:21:07;5.63;;;1.93;;
67156;SDS011;54086;50.126;8.710;2023-05-10T12:23:35;5.03;;;1.90;;
67156;SDS011;54086;50.126;8.710;2023-05-10T12:26:04;4.80;;;1.85;;
67156;SDS011;54086;50.126;8.710;2023-05-10T12:28:30;5.00;;;2.00;;
67156;SDS011;54086;50.126;8.710;2023-05-10T12:30:57;5.32;;;2.10;;
67156;SDS011;54086;50.126;8.710;2023-05-10T12:33:23;6.50;;;2.25;;
67156;SDS011;54086;50.126;8.710;2023-05-10T12:35:53;5.20;;;2.20;;
67156;SDS011;54086;50.126;8.710;2023-05-10T12:38:59;5.93;;;2.38;;
67156;SDS011;54086;50.126;8.710;2023-05-10T12:41:15;4.70;;;1.90;;
67156;SDS011;54086;50.126;8.710;2023-05-10T12:43:44;5.85;;;1.80;;
67156;SDS011;54086;50.126;8.710;2023-05-10T12:46:12;4.47;;;2.05;;
67156;SDS011;54086;50.126;8.710;2023-05-10T12:48:40;5.57;;;1.65;;
67156;SDS011;54086;50.126;8.710;2023-05-10T12:51:06;5.28;;;1.48;;
67156;SDS011;54086;50.126;8.710;2023-05-10T12:53:37;5.50;;;1.67;;
67156;SDS011;54086;50.126;8.710;2023-05-10T12:56:02;5.05;;;2.00;;
67156;SDS011;54086;50.126;8.710;2023-05-10T12:58:28;5.72;;;2.13;;
67156;SDS011;54086;50.126;8.710;2023-05-10T13:00:53;3.93;;;1.57;;
67156;SDS011;54086;50.126;8.710;2023-05-10T13:03:21;4.57;;;1.52;;
67156;SDS011;54086;50.126;8.710;2023-05-10T13:05:47;4.10;;;1.60;;
67156;SDS011;54086;50.126;8.710;2023-05-10T13:08:13;6.50;;;2.13;;
67156;SDS011;54086;50.126;8.710;2023-05-10T13:10:38;7.27;;;2.20;;
67156;SDS011;54086;50.126;8.710;2023-05-10T13:13:04;5.70;;;1.77;;
67156;SDS011;54086;50.126;8.710;2023-05-10T13:15:33;5.85;;;1.90;;
67156;SDS011;54086;50.126;8.710;2023-05-10T13:17:58;5.53;;;1.85;;
67156;SDS011;54086;50.126;8.710;2023-05-10T13:20:25;5.57;;;1.83;;
67156;SDS011;54086;50.126;8.710;2023-05-10T13:22:50;4.75;;;1.50;;
67156;SDS011;54086;50.126;8.710;2023-05-10T13:25:16;4.32;;;1.48;;
67156;SDS011;54086;50.126;8.710;2023-05-10T13:27:42;3.80;;;1.67;;
67156;SDS011;54086;50.126;8.710;2023-05-10T13:30:09;4.30;;;2.00;;
67156;SDS011;54086;50.126;8.710;2023-05-10T13:32:36;4.07;;;1.75;;
67156;SDS011;54086;50.126;8.710;2023-05-10T13:35:02;5.27;;;2.03;;
67156;SDS011;54086;50.126;8.710;2023-05-10T13:37:31;5.03;;;2.10;;
67156;SDS011;54086;50.126;8.710;2023-05-10T13:40:02;4.45;;;1.52;;
67156;SDS011;54086;50.126;8.710;2023-05-10T13:42:29;3.65;;;1.60;;
67156;SDS011;54086;50.126;8.710;2023-05-10T13:44:57;5.20;;;1.70;;
67156;SDS011;54086;50.126;8.710;2023-05-10T13:47:23;4.45;;;1.30;;
67156;SDS011;54086;50.126;8.710;2023-05-10T13:49:48;5.33;;;1.97;;
67156;SDS011;54086;50.126;8.710;2023-05-10T13:52:14;5.88;;;1.88;;
67156;SDS011;54086;50.126;8.710;2023-05-10T13:54:39;6.93;;;1.77;;
67156;SDS011;54086;50.126;8.710;2023-05-10T13:57:04;5.50;;;1.77;;
67156;SDS011;54086;50.126;8.710;2023-05-10T13:59:30;4.40;;;1.90;;
67156;SDS011;54086;50.126;8.710;2023-05-10T14:01:56;6.10;;;1.77;;
67156;SDS011;54086;50.126;8.710;2023-05-10T14:04:24;4.72;;;1.60;;
67156;SDS011;54086;50.126;8.710;2023-05-10T14:06:50;5.60;;;1.60;;
67156;SDS011;54086;50.126;8.710;2023-05-10T14:09:15;4.43;;;1.43;;
67156;SDS011;54086;50.126;8.710;2023-05-10T14:11:41;5.03;;;1.67;;
67156;SDS011;54086;50.126;8.710;2023-05-10T14:14:08;5.15;;;1.65;;
67156;SDS011;54086;50.126;8.710;2023-05-10T14:16:34;5.20;;;1.80;;
67156;SDS011;54086;50.126;8.710;2023-05-10T14:19:00;4.67;;;1.40;;
67156;SDS011;54086;50.126;8.710;2023-05-10T14:21:26;4.40;;;1.52;;
67156;SDS011;54086;50.126;8.710;2023-05-10T14:23:52;5.88;;;2.00;;
67156;SDS011;54086;50.126;8.710;2023-05-10T14:26:20;5.50;;;1.50;;
67156;SDS011;54086;50.126;8.710;2023-05-10T14:28:46;4.63;;;1.70;;
67156;SDS011;54086;50.126;8.710;2023-05-10T14:31:12;5.43;;;1.70;;
67156;SDS011;54086;50.126;8.710;2023-05-10T14:33:37;5.30;;;1.40;;
67156;SDS011;54086;50.126;8.710;2023-05-10T14:36:03;4.97;;;1.70;;
67156;SDS011;54086;50.126;8.710;2023-05-10T14:38:29;5.15;;;1.60;;
67156;SDS011;54086;50.126;8.710;2023-05-10T14:40:54;3.75;;;1.40;;
67156;SDS011;54086;50.126;8.710;2023-05-10T14:43:21;3.67;;;1.40;;
67156;SDS011;54086;50.126;8.710;2023-05-10T14:45:46;3.85;;;1.40;;
67156;SDS011;54086;50.126;8.710;2023-05-10T14:48:12;5.00;;;1.60;;
67156;SDS011;54086;50.126;8.710;2023-05-10T14:50:41;5.17;;;1.40;;
67156;SDS011;54086;50.126;8.710;2023-05-10T14:53:08;2.95;;;1.45;;
67156;SDS011;54086;50.126;8.710;2023-05-10T14:55:33;5.23;;;1.57;;
67156;SDS011;54086;50.126;8.710;2023-05-10T14:58:00;4.00;;;1.50;;
67156;SDS011;54086;50.126;8.710;2023-05-10T15:00:25;5.93;;;1.42;;
67156;SDS011;54086;50.126;8.710;2023-05-10T15:02:51;4.03;;;1.60;;
67156;SDS011;54086;50.126;8.710;2023-05-10T15:05:16;4.60;;;1.70;;
67156;SDS011;54086;50.126;8.710;2023-05-10T15:07:42;7.83;;;1.60;;
67156;SDS011;54086;50.126;8.710;2023-05-10T15:10:09;5.53;;;2.00;;
67156;SDS011;54086;50.126;8.710;2023-05-10T15:12:34;4.73;;;1.90;;
67156;SDS011;54086;50.126;8.710;2023-05-10T15:15:00;4.97;;;1.50;;
67156;SDS011;54086;50.126;8.710;2023-05-10T15:17:25;4.10;;;1.50;;
67156;SDS011;54086;50.126;8.710;2023-05-10T15:19:52;4.95;;;1.60;;
67156;SDS011;54086;50.126;8.710;2023-05-10T15:22:17;5.70;;;2.10;;
67156;SDS011;54086;50.126;8.710;2023-05-10T15:24:43;4.70;;;1.67;;
67156;SDS011;54086;50.126;8.710;2023-05-10T15:27:09;5.45;;;1.65;;
67156;SDS011;54086;50.126;8.710;2023-05-10T15:29:35;5.32;;;1.73;;
67156;SDS011;54086;50.126;8.710;2023-05-10T15:32:01;7.07;;;1.60;;